Concerto — JJ3855 — position and weather

sailwx.info

Track history (hours):
 
Tides and Currents Weather Stations Pressure Air Temp Water Temp Dewpoint Dewpoint Depression Visibility Wind Speed Wind Dir Waves Ship Positions

Concerto

Last reported at 2017-Jun-24 20:25 UTC. Time now 2017-Jun-24 20:51 UTC.
Position N 34°41' E 135°11'.

Length 74 m; draft 3 m.

Type: Passenger vessel. MMSI: 431000448.

Date/timePositionNaut miles runAvg speedWind from/ knotsBaromVisibWave heightAir tempDewpointWater temp
2017-Jun-24 20:25N 34°41' E 135°11'0 0.0
2017-Jun-24 19:55N 34°41' E 135°11'0 0.0
2017-Jun-24 19:19N 34°41' E 135°11'0 0.0
2017-Jun-24 18:56N 34°41' E 135°11'0 0.0
2017-Jun-24 18:19N 34°41' E 135°11'0 0.0
2017-Jun-24 17:56N 34°41' E 135°11'0 0.0
2017-Jun-24 17:25N 34°41' E 135°11'0 0.0
2017-Jun-24 16:55N 34°41' E 135°11'0 0.0
2017-Jun-24 16:25N 34°41' E 135°11'0 0.0
2017-Jun-24 15:55N 34°41' E 135°11'0 0.0
2017-Jun-24 15:13N 34°41' E 135°11'0 0.0
2017-Jun-24 14:55N 34°41' E 135°11'0 0.0
2017-Jun-24 13:55N 34°41' E 135°11'0 0.0
2017-Jun-24 13:26N 34°41' E 135°11'0 0.0
2017-Jun-24 12:55N 34°41' E 135°11'0 0.0
2017-Jun-24 12:25N 34°41' E 135°11'0 0.0
2017-Jun-24 12:00N 34°41' E 135°11'3 6.6
2017-Jun-24 11:30N 34°38' E 135°10'4 7.4
2017-Jun-24 11:00N 34°37' E 135°05'4 8.3
2017-Jun-24 10:30N 34°38' E 135°10'3 5.7
2017-Jun-24 10:00N 34°41' E 135°11'0 0.0
2017-Jun-24 09:29N 34°41' E 135°11'3 5.4
2017-Jun-24 09:00N 34°38' E 135°11'3 6.3
2017-Jun-24 08:30N 34°37' E 135°08'4 7.9
2017-Jun-24 08:00N 34°40' E 135°11'1 2.6
2017-Jun-24 07:30N 34°41' E 135°11'0 0.0
2017-Jun-24 07:00N 34°41' E 135°11'2 4.1
2017-Jun-24 06:31N 34°39' E 135°11'0 0.4
2017-Jun-24 06:00N 34°39' E 135°11'2 4.5
2017-Jun-24 05:30N 34°41' E 135°11'0 0.0
2017-Jun-24 04:57N 34°41' E 135°11'2 5.2
2017-Jun-24 04:30N 34°38' E 135°11'4 8.7
2017-Jun-24 04:00N 34°37' E 135°06'4 7.2
2017-Jun-24 03:30N 34°38' E 135°10'3 5.2
2017-Jun-24 03:00N 34°41' E 135°11'0 0.0
2017-Jun-24 02:26N 34°41' E 135°11'0 0.0
2017-Jun-24 01:56N 34°41' E 135°11'0 0.0
2017-Jun-24 01:20N 34°41' E 135°11'0 0.0
2017-Jun-24 00:56N 34°41' E 135°11'0 0.0
2017-Jun-24 00:26N 34°41' E 135°11'0 0.0
2017-Jun-23 23:56N 34°41' E 135°11'0 0.0
2017-Jun-23 23:26N 34°41' E 135°11'0 0.0
2017-Jun-23 22:50N 34°41' E 135°11'0 0.0
2017-Jun-23 22:20N 34°41' E 135°11'0 0.0
2017-Jun-23 21:56N 34°41' E 135°11'0 0.0
2017-Jun-23 21:20N 34°41' E 135°11'0 0.0
2017-Jun-23 20:56N 34°41' E 135°11'0 0.0
2017-Jun-23 20:26N 34°41' E 135°11'0 0.0
2017-Jun-23 19:50N 34°41' E 135°11'0 0.0
2017-Jun-23 19:26N 34°41' E 135°11'0 0.0
2017-Jun-23 18:56N 34°41' E 135°11'0 0.0
2017-Jun-23 18:26N 34°41' E 135°11'0 0.0
2017-Jun-23 17:56N 34°41' E 135°11'0 0.0
2017-Jun-23 17:26N 34°41' E 135°11'0 0.0
2017-Jun-23 16:56N 34°41' E 135°11'0 0.0
2017-Jun-23 16:26N 34°41' E 135°11'0 0.0
2017-Jun-23 15:56N 34°41' E 135°11'0 0.0
2017-Jun-23 15:26N 34°41' E 135°11'0 0.0
2017-Jun-23 14:56N 34°41' E 135°11'0 0.0
2017-Jun-23 13:56N 34°41' E 135°11'0 0.0
2017-Jun-23 13:02N 34°41' E 135°11'0 0.0
2017-Jun-23 12:56N 34°41' E 135°11'0 0.0
2017-Jun-23 12:20N 34°41' E 135°11'0 0.2
2017-Jun-23 12:00N 34°41' E 135°11'3 6.4
2017-Jun-23 11:30N 34°38' E 135°10'4 8.4
2017-Jun-23 11:00N 34°37' E 135°05'4 7.6
2017-Jun-23 10:30N 34°38' E 135°09'3 6.1
2017-Jun-23 10:00N 34°41' E 135°11'0 0.0
2017-Jun-23 09:24N 34°41' E 135°11'3 6.6
2017-Jun-23 09:00N 34°38' E 135°11'4 7.3
2017-Jun-23 08:30N 34°37' E 135°07'4 8.6
2017-Jun-23 08:00N 34°39' E 135°11'2 2.9
2017-Jun-23 07:29N 34°41' E 135°11'0 0.0
2017-Jun-23 06:52N 34°41' E 135°11'3 7.1
2017-Jun-23 06:30N 34°38' E 135°11'1 2.6
2017-Jun-23 06:00N 34°38' E 135°09'3 6.0
2017-Jun-23 05:30N 34°41' E 135°11'0 0.0
2017-Jun-23 04:55N 34°41' E 135°11'2 4.7
2017-Jun-23 04:30N 34°39' E 135°11'4 7.3
2017-Jun-23 04:00N 34°37' E 135°08'2 4.4
2017-Jun-23 03:30N 34°38' E 135°10'3 6.0
2017-Jun-23 03:00N 34°41' E 135°11'0 0.0
2017-Jun-23 02:15N 34°41' E 135°11'0 0.0
2017-Jun-23 01:51N 34°41' E 135°11'0 0.0
2017-Jun-23 01:27N 34°41' E 135°11'0 0.0
2017-Jun-23 00:51N 34°41' E 135°11'0 0.0
2017-Jun-23 00:27N 34°41' E 135°11'0 0.0
2017-Jun-22 23:57N 34°41' E 135°11'0 0.0
2017-Jun-22 23:27N 34°41' E 135°11'0 0.0
2017-Jun-22 22:57N 34°41' E 135°11'0 0.0
2017-Jun-22 22:27N 34°41' E 135°11'0 0.0
2017-Jun-22 21:45N 34°41' E 135°11'0 0.0
2017-Jun-22 21:27N 34°41' E 135°11'0 0.0
2017-Jun-22 20:57N 34°41' E 135°11'0 0.0
2017-Jun-22 20:27N 34°41' E 135°11'0 0.0
2017-Jun-22 19:57N 34°41' E 135°11'0 0.0
2017-Jun-22 19:21N 34°41' E 135°11'0 0.0
2017-Jun-22 18:57N 34°41' E 135°11'0 0.0
2017-Jun-22 18:09N 34°41' E 135°11'0 0.0
2017-Jun-22 17:51N 34°41' E 135°11'0 0.0
2017-Jun-22 17:21N 34°41' E 135°11'0 0.0
2017-Jun-22 16:57N 34°41' E 135°11'0 0.0
2017-Jun-22 16:27N 34°41' E 135°11'0 0.0
2017-Jun-22 15:57N 34°41' E 135°11'0 0.0
2017-Jun-22 15:27N 34°41' E 135°11'0 0.0
2017-Jun-22 14:57N 34°41' E 135°11'0 0.0
2017-Jun-22 14:27N 34°41' E 135°11'0 0.0
2017-Jun-22 13:27N 34°41' E 135°11'0 0.0
2017-Jun-22 12:57N 34°41' E 135°11'0 0.0
2017-Jun-22 12:21N 34°41' E 135°11'0 0.4
2017-Jun-22 12:00N 34°41' E 135°11'3 7.0
2017-Jun-22 11:30N 34°37' E 135°10'4 8.3
2017-Jun-22 11:00N 34°37' E 135°05'4 8.8
2017-Jun-22 10:30N 34°38' E 135°10'3 5.4
2017-Jun-22 10:00N 34°41' E 135°11'0 0.0
2017-Jun-22 09:24N 34°41' E 135°11'3 6.3
2017-Jun-22 09:00N 34°38' E 135°11'3 6.1
2017-Jun-22 08:30N 34°37' E 135°08'4 8.4
2017-Jun-22 08:00N 34°40' E 135°11'1 1.6
2017-Jun-22 07:23N 34°41' E 135°11'0 0.0
2017-Jun-22 06:59N 34°41' E 135°11'3 5.8
2017-Jun-22 06:30N 34°38' E 135°10'0 0.9
2017-Jun-22 06:00N 34°38' E 135°10'3 5.0
2017-Jun-22 05:30N 34°41' E 135°11'0 0.0
2017-Jun-22 05:00N 34°41' E 135°11'2 4.7
2017-Jun-22 04:30N 34°39' E 135°11'5 9.1
2017-Jun-22 04:00N 34°37' E 135°06'4 7.9
2017-Jun-22 03:30N 34°38' E 135°10'3 5.4
2017-Jun-22 03:00N 34°41' E 135°11'0 0.0
2017-Jun-22 02:25N 34°41' E 135°11'0 0.0
2017-Jun-22 01:55N 34°41' E 135°11'0 0.0
2017-Jun-22 01:13N 34°41' E 135°11'0 0.0
2017-Jun-22 00:55N 34°41' E 135°11'0 0.0
2017-Jun-22 00:25N 34°41' E 135°11'0 0.0
2017-Jun-21 23:55N 34°41' E 135°11'0 0.0
2017-Jun-21 23:25N 34°41' E 135°11'0 0.0
2017-Jun-21 22:55N 34°41' E 135°11'0 0.0
2017-Jun-21 22:25N 34°41' E 135°11'0 0.0
2017-Jun-21 21:55N 34°41' E 135°11'0 0.0
2017-Jun-21 21:25N 34°41' E 135°11'0 0.0
2017-Jun-21 20:55N 34°41' E 135°11'0 0.0
2017-Jun-21 20:19N 34°41' E 135°11'0 0.0
2017-Jun-21 19:55N 34°41' E 135°11'0 0.0
2017-Jun-21 19:19N 34°41' E 135°11'0 0.0
2017-Jun-21 18:49N 34°41' E 135°11'0 0.0
2017-Jun-21 18:25N 34°41' E 135°11'0 0.0
2017-Jun-21 17:55N 34°41' E 135°11'0 0.0
2017-Jun-21 17:25N 34°41' E 135°11'0 0.0
2017-Jun-21 16:55N 34°41' E 135°11'0 0.0
2017-Jun-21 16:25N 34°41' E 135°11'0 0.0
2017-Jun-21 15:49N 34°41' E 135°11'0 0.0
2017-Jun-21 15:25N 34°41' E 135°11'0 0.0
2017-Jun-21 14:55N 34°41' E 135°11'0 0.0
2017-Jun-21 14:13N 34°41' E 135°11'0 0.0
2017-Jun-21 13:25N 34°41' E 135°11'0 0.0
2017-Jun-21 12:55N 34°41' E 135°11'0 0.0
2017-Jun-21 12:19N 34°41' E 135°11'0 1.0
2017-Jun-21 12:00N 34°41' E 135°11'2 4.9
2017-Jun-21 11:30N 34°38' E 135°11'3 6.8
2017-Jun-21 11:00N 34°37' E 135°07'3 6.3
2017-Jun-21 10:30N 34°38' E 135°11'3 4.5
2017-Jun-21 09:55N 34°41' E 135°11'0 0.0
2017-Jun-21 09:26N 34°41' E 135°11'1 3.4
2017-Jun-21 09:00N 34°39' E 135°11'3 5.2
2017-Jun-21 08:31N 34°38' E 135°09'3 5.6
2017-Jun-21 08:00N 34°40' E 135°11'1 2.0
2017-Jun-21 07:30N 34°41' E 135°11'0 0.0
2017-Jun-21 07:00N 34°41' E 135°11'1 2.9
2017-Jun-21 06:30N 34°39' E 135°12'1 1.1
2017-Jun-21 06:00N 34°40' E 135°12'1 1.9
2017-Jun-21 05:30N 34°41' E 135°11'0 0.0
2017-Jun-21 04:58N 34°41' E 135°11'2 5.1
2017-Jun-21 04:30N 34°38' E 135°11'3 7.0
2017-Jun-21 04:00N 34°37' E 135°07'3 6.6
2017-Jun-21 03:30N 34°38' E 135°11'3 5.1
2017-Jun-21 03:00N 34°41' E 135°11'0 0.0
2017-Jun-21 02:22N 34°41' E 135°11'0 0.0
2017-Jun-21 01:58N 34°41' E 135°11'0 0.0
2017-Jun-21 01:28N 34°41' E 135°11'0 0.0
2017-Jun-21 00:52N 34°41' E 135°11'0 0.0
2017-Jun-21 00:28N 34°41' E 135°11'0 0.0
2017-Jun-20 23:58N 34°41' E 135°11'0 0.0
2017-Jun-20 23:28N 34°41' E 135°11'0 0.0
2017-Jun-20 22:58N 34°41' E 135°11'0 0.0
2017-Jun-20 22:28N 34°41' E 135°11'0 0.0
2017-Jun-20 21:58N 34°41' E 135°11'0 0.0
2017-Jun-20 21:28N 34°41' E 135°11'0 0.0
2017-Jun-20 20:58N 34°41' E 135°11'0 0.0
2017-Jun-20 20:28N 34°41' E 135°11'0 0.0
2017-Jun-20 19:58N 34°41' E 135°11'0 0.0
2017-Jun-20 19:22N 34°41' E 135°11'0 0.0
2017-Jun-20 18:58N 34°41' E 135°11'0 0.0
2017-Jun-20 18:28N 34°41' E 135°11'0 0.0
2017-Jun-20 17:46N 34°41' E 135°11'0 0.0
2017-Jun-20 17:28N 34°41' E 135°11'0 0.0
2017-Jun-20 16:58N 34°41' E 135°11'0 0.0
2017-Jun-20 16:28N 34°41' E 135°11'0 0.0
2017-Jun-20 15:58N 34°41' E 135°11'0 0.0
2017-Jun-20 15:28N 34°41' E 135°11'0 0.0
2017-Jun-20 14:58N 34°41' E 135°11'0 0.0
2017-Jun-20 14:28N 34°41' E 135°11'0 0.0
2017-Jun-20 13:28N 34°41' E 135°11'0 0.0
2017-Jun-20 12:52N 34°41' E 135°11'0 0.0
2017-Jun-20 12:28N 34°41' E 135°11'0 0.2
2017-Jun-20 12:00N 34°41' E 135°11'3 6.1
2017-Jun-20 11:30N 34°38' E 135°10'3 5.7
2017-Jun-20 11:00N 34°37' E 135°07'3 5.9
2017-Jun-20 10:30N 34°38' E 135°10'3 5.7
2017-Jun-20 10:00N 34°41' E 135°11'0 0.0
2017-Jun-20 09:29N 34°41' E 135°11'1 1.4
2017-Jun-20 09:00N 34°40' E 135°11'2 3.6
2017-Jun-20 08:30N 34°38' E 135°11'1 2.5
2017-Jun-20 08:00N 34°40' E 135°11'1 2.3
2017-Jun-20 07:30N 34°41' E 135°11'0 0.0
2017-Jun-20 06:57N 34°41' E 135°11'2 4.2
2017-Jun-20 06:30N 34°39' E 135°11'1 1.1
2017-Jun-20 06:00N 34°39' E 135°11'2 4.6
2017-Jun-20 05:30N 34°41' E 135°11'0 0.0
2017-Jun-20 04:55N 34°41' E 135°11'2 4.6
2017-Jun-20 04:30N 34°39' E 135°11'4 7.5
2017-Jun-20 04:00N 34°37' E 135°07'3 5.4
2017-Jun-20 03:30N 34°38' E 135°10'3 5.1
2017-Jun-20 03:00N 34°41' E 135°11'0 0.0
2017-Jun-20 02:30N 34°41' E 135°11'0 0.0
2017-Jun-20 02:00N 34°41' E 135°11'0 0.0
2017-Jun-20 01:30N 34°41' E 135°11'0 0.0
2017-Jun-20 01:00N 34°41' E 135°11'0 0.0
2017-Jun-20 00:30N 34°41' E 135°11'0 0.0
2017-Jun-20 00:00N 34°41' E 135°11'0 0.0
2017-Jun-19 23:30N 34°41' E 135°11'0 0.0
2017-Jun-19 23:00N 34°41' E 135°11'0 0.0
2017-Jun-19 22:30N 34°41' E 135°11'0 0.0
2017-Jun-19 22:00N 34°41' E 135°11'0 0.0
2017-Jun-19 21:30N 34°41' E 135°11'0 0.0
2017-Jun-19 21:00N 34°41' E 135°11'0 0.0
2017-Jun-19 20:30N 34°41' E 135°11'0 0.0
2017-Jun-19 20:00N 34°41' E 135°11'0 0.0
2017-Jun-19 19:30N 34°41' E 135°11'0 0.0
2017-Jun-19 19:00N 34°41' E 135°11'0 0.0
2017-Jun-19 18:30N 34°41' E 135°11'0 0.0
2017-Jun-19 18:00N 34°41' E 135°11'0 0.0
2017-Jun-19 17:30N 34°41' E 135°11'0 0.0
2017-Jun-19 17:00N 34°41' E 135°11'0 0.0
2017-Jun-19 16:30N 34°41' E 135°11'0 0.0
2017-Jun-19 16:00N 34°41' E 135°11'0 0.0
2017-Jun-19 15:30N 34°41' E 135°11'0 0.0
2017-Jun-19 15:00N 34°41' E 135°11'0 0.0
2017-Jun-19 14:30N 34°41' E 135°11'0 0.0
2017-Jun-19 13:30N 34°41' E 135°11'0 0.0
2017-Jun-19 13:00N 34°41' E 135°11'0 0.0
2017-Jun-19 12:30N 34°41' E 135°11'0 1.0
2017-Jun-19 12:00N 34°40' E 135°11'4 8.6
2017-Jun-19 11:30N 34°37' E 135°08'2 4.2
2017-Jun-19 11:00N 34°37' E 135°06'4 8.2
2017-Jun-19 10:30N 34°38' E 135°10'3 5.3
2017-Jun-19 10:00N 34°41' E 135°11'0 0.0
2017-Jun-19 09:29N 34°41' E 135°11'3 5.5
2017-Jun-19 09:00N 34°38' E 135°11'3 6.6
2017-Jun-19 08:30N 34°37' E 135°07'4 8.1
2017-Jun-19 08:00N 34°39' E 135°11'1 2.6
2017-Jun-19 07:30N 34°41' E 135°11'0 0.0
2017-Jun-19 07:00N 34°41' E 135°11'3 5.4
2017-Jun-19 06:30N 34°38' E 135°11'1 1.0
2017-Jun-19 06:00N 34°38' E 135°10'3 5.3
2017-Jun-19 05:30N 34°41' E 135°11'0 0.0
2017-Jun-19 04:51N 34°41' E 135°11'2 6.3
2017-Jun-19 04:30N 34°39' E 135°11'5 9.1
2017-Jun-19 04:00N 34°37' E 135°06'3 6.2
2017-Jun-19 03:30N 34°38' E 135°10'3 6.1
2017-Jun-19 03:00N 34°41' E 135°11'0 0.0
2017-Jun-19 02:24N 34°41' E 135°11'0 0.0
2017-Jun-19 01:48N 34°41' E 135°11'0 0.0
2017-Jun-19 01:30N 34°41' E 135°11'0 0.0
2017-Jun-19 01:00N 34°41' E 135°11'0 0.0
2017-Jun-19 00:30N 34°41' E 135°11'0 0.0
2017-Jun-18 23:54N 34°41' E 135°11'0 0.0
2017-Jun-18 23:00N 34°41' E 135°11'0 0.0
2017-Jun-18 22:30N 34°41' E 135°11'0 0.0
2017-Jun-18 21:54N 34°41' E 135°11'0 0.0
2017-Jun-18 21:30N 34°41' E 135°11'0 0.0
2017-Jun-18 21:00N 34°41' E 135°11'0 0.0
2017-Jun-18 20:24N 34°41' E 135°11'0 0.0
2017-Jun-18 20:00N 34°41' E 135°11'0 0.0
2017-Jun-18 19:18N 34°41' E 135°11'0 0.0
2017-Jun-18 18:54N 34°41' E 135°11'0 0.0
2017-Jun-18 18:24N 34°41' E 135°11'0 0.0
2017-Jun-18 18:00N 34°41' E 135°11'0 0.0
2017-Jun-18 17:30N 34°41' E 135°11'0 0.0
2017-Jun-18 16:54N 34°41' E 135°11'0 0.0
2017-Jun-18 16:30N 34°41' E 135°11'0 0.0
2017-Jun-18 16:00N 34°41' E 135°11'0 0.0
2017-Jun-18 15:30N 34°41' E 135°11'0 0.0
2017-Jun-18 14:48N 34°41' E 135°11'0 0.0
2017-Jun-18 13:54N 34°41' E 135°11'0 0.0
2017-Jun-18 13:30N 34°41' E 135°11'0 0.0
2017-Jun-18 13:00N 34°41' E 135°11'0 0.0
2017-Jun-18 12:30N 34°41' E 135°11'0 0.6
2017-Jun-18 12:00N 34°41' E 135°11'3 6.7
2017-Jun-18 11:30N 34°38' E 135°09'3 5.9
2017-Jun-18 11:00N 34°37' E 135°06'4 7.9
2017-Jun-18 10:30N 34°38' E 135°10'3 5.3
2017-Jun-18 10:00N 34°41' E 135°11'0 0.0
2017-Jun-18 09:25N 34°41' E 135°11'2 4.6
2017-Jun-18 09:00N 34°39' E 135°11'3 6.6
2017-Jun-18 08:30N 34°37' E 135°08'4 7.5
2017-Jun-18 08:00N 34°40' E 135°11'1 2.2
2017-Jun-18 07:30N 34°41' E 135°11'0 0.0
2017-Jun-18 06:57N 34°41' E 135°11'2 5.2
2017-Jun-18 06:30N 34°38' E 135°11'1 1.7
2017-Jun-18 06:00N 34°38' E 135°10'3 5.1
2017-Jun-18 05:27N 34°41' E 135°11'0 0.0
2017-Jun-18 04:51N 34°41' E 135°11'2 6.5
2017-Jun-18 04:30N 34°39' E 135°11'4 8.7
2017-Jun-18 04:00N 34°37' E 135°06'3 6.5
2017-Jun-18 03:30N 34°38' E 135°10'3 5.7
2017-Jun-18 03:00N 34°41' E 135°11'0 0.0
2017-Jun-18 02:27N 34°41' E 135°11'0 0.0
2017-Jun-18 01:57N 34°41' E 135°11'0 0.0
2017-Jun-18 01:27N 34°41' E 135°11'0 0.0
2017-Jun-18 00:57N 34°41' E 135°11'0 0.0
2017-Jun-18 00:27N 34°41' E 135°11'0 0.0
2017-Jun-17 23:57N 34°41' E 135°11'0 0.0
2017-Jun-17 23:27N 34°41' E 135°11'0 0.0
2017-Jun-17 22:57N 34°41' E 135°11'0 0.0
2017-Jun-17 22:27N 34°41' E 135°11'0 0.0
2017-Jun-17 21:51N 34°41' E 135°11'0 0.0
2017-Jun-17 21:27N 34°41' E 135°11'0 0.0
2017-Jun-17 20:57N 34°41' E 135°11'0 0.0
2017-Jun-17 20:27N 34°41' E 135°11'0 0.0
2017-Jun-17 19:57N 34°41' E 135°11'0 0.0
2017-Jun-17 19:27N 34°41' E 135°11'0 0.0
2017-Jun-17 18:57N 34°41' E 135°11'0 0.0
2017-Jun-17 18:21N 34°41' E 135°11'0 0.0
2017-Jun-17 17:45N 34°41' E 135°11'0 0.0
2017-Jun-17 17:27N 34°41' E 135°11'0 0.0
2017-Jun-17 16:57N 34°41' E 135°11'0 0.0
2017-Jun-17 16:27N 34°41' E 135°11'0 0.0
2017-Jun-17 15:51N 34°41' E 135°11'0 0.0
2017-Jun-17 15:27N 34°41' E 135°11'0 0.0
2017-Jun-17 14:57N 34°41' E 135°11'0 0.0
2017-Jun-17 14:27N 34°41' E 135°11'0 0.0
2017-Jun-17 13:27N 34°41' E 135°11'0 0.0
2017-Jun-17 12:57N 34°41' E 135°11'0 0.0
2017-Jun-17 12:21N 34°41' E 135°11'0 0.2
2017-Jun-17 12:00N 34°41' E 135°11'4 7.4
2017-Jun-17 11:31N 34°37' E 135°09'4 7.9
2017-Jun-17 11:00N 34°37' E 135°05'4 8.4
2017-Jun-17 10:31N 34°38' E 135°09'3 6.3
2017-Jun-17 10:00N 34°41' E 135°11'0 0.0
2017-Jun-17 09:25N 34°41' E 135°11'2 5.1
2017-Jun-17 09:00N 34°39' E 135°11'3 6.1
2017-Jun-17 08:30N 34°38' E 135°08'4 7.4
2017-Jun-17 08:00N 34°40' E 135°11'1 1.9
2017-Jun-17 07:30N 34°41' E 135°11'0 0.0
2017-Jun-17 06:58N 34°41' E 135°11'2 4.9
2017-Jun-17 06:31N 34°39' E 135°11'1 1.8
2017-Jun-17 06:01N 34°38' E 135°10'3 5.5
2017-Jun-17 05:31N 34°41' E 135°11'0 0.0
2017-Jun-17 04:56N 34°41' E 135°11'2 5.1
2017-Jun-17 04:30N 34°39' E 135°11'4 8.7
2017-Jun-17 04:00N 34°37' E 135°06'3 5.9
2017-Jun-17 03:30N 34°38' E 135°10'3 6.2
2017-Jun-17 03:00N 34°41' E 135°11'0 0.0
2017-Jun-17 02:14N 34°41' E 135°11'0 0.0
2017-Jun-17 01:56N 34°41' E 135°11'0 0.0
2017-Jun-17 01:26N 34°41' E 135°11'0 0.0
2017-Jun-17 00:44N 34°41' E 135°11'0 0.0
2017-Jun-17 00:26N 34°41' E 135°11'0 0.0
2017-Jun-16 23:56N 34°41' E 135°11'0 0.0
2017-Jun-16 23:26N 34°41' E 135°11'0 0.0
2017-Jun-16 22:50N 34°41' E 135°11'0 0.0
2017-Jun-16 22:26N 34°41' E 135°11'0 0.0
2017-Jun-16 21:56N 34°41' E 135°11'0 0.0
2017-Jun-16 21:26N 34°41' E 135°11'0 0.0
2017-Jun-16 20:56N 34°41' E 135°11'0 0.0
2017-Jun-16 20:26N 34°41' E 135°11'0 0.0
2017-Jun-16 19:56N 34°41' E 135°11'0 0.0
2017-Jun-16 19:26N 34°41' E 135°11'0 0.0
2017-Jun-16 18:50N 34°41' E 135°11'0 0.0
2017-Jun-16 18:20N 34°41' E 135°11'0 0.0
2017-Jun-16 17:56N 34°41' E 135°11'0 0.0
2017-Jun-16 17:26N 34°41' E 135°11'0 0.0
2017-Jun-16 16:56N 34°41' E 135°11'0 0.0
2017-Jun-16 16:26N 34°41' E 135°11'0 0.0
2017-Jun-16 15:56N 34°41' E 135°11'0 0.0
2017-Jun-16 15:26N 34°41' E 135°11'0 0.0
2017-Jun-16 14:56N 34°41' E 135°11'0 0.0
2017-Jun-16 14:20N 34°41' E 135°11'0 0.0
2017-Jun-16 13:26N 34°41' E 135°11'0 0.0
2017-Jun-16 12:50N 34°41' E 135°11'0 0.0
2017-Jun-16 12:20N 34°41' E 135°11'1 1.7
2017-Jun-16 12:00N 34°40' E 135°11'4 7.5
2017-Jun-16 11:31N 34°37' E 135°09'4 7.2
2017-Jun-16 11:01N 34°37' E 135°05'4 8.2
2017-Jun-16 10:30N 34°38' E 135°10'3 6.4
2017-Jun-16 10:00N 34°41' E 135°11'0 0.0
2017-Jun-16 09:28N 34°41' E 135°11'2 4.8
2017-Jun-16 09:00N 34°39' E 135°11'4 7.1
2017-Jun-16 08:30N 34°37' E 135°07'4 8.2
2017-Jun-16 08:00N 34°40' E 135°11'1 2.6
2017-Jun-16 07:30N 34°41' E 135°11'0 0.0
2017-Jun-16 07:00N 34°41' E 135°11'2 4.5
2017-Jun-16 06:31N 34°39' E 135°11'1 2.7
2017-Jun-16 06:01N 34°38' E 135°10'3 6.3
2017-Jun-16 05:31N 34°41' E 135°11'0 0.0
2017-Jun-16 04:55N 34°41' E 135°11'2 4.8
2017-Jun-16 04:30N 34°39' E 135°11'4 7.6
2017-Jun-16 04:00N 34°37' E 135°07'2 4.7
2017-Jun-16 03:31N 34°38' E 135°10'3 6.2
2017-Jun-16 03:00N 34°41' E 135°11'0 0.0
2017-Jun-16 02:30N 34°41' E 135°11'0 0.0
2017-Jun-16 02:00N 34°41' E 135°11'0 0.0
2017-Jun-16 01:30N 34°41' E 135°11'0 0.0
2017-Jun-16 01:00N 34°41' E 135°11'0 0.0
2017-Jun-16 00:24N 34°41' E 135°11'0 0.0
2017-Jun-16 00:00N 34°41' E 135°11'0 0.0
2017-Jun-15 23:12N 34°41' E 135°11'0 0.0
2017-Jun-15 23:00N 34°41' E 135°11'0 0.0
2017-Jun-15 22:30N 34°41' E 135°11'0 0.0
2017-Jun-15 22:00N 34°41' E 135°11'0 0.0
2017-Jun-15 21:18N 34°41' E 135°11'0 0.0
2017-Jun-15 21:00N 34°41' E 135°11'0 0.0
2017-Jun-15 20:30N 34°41' E 135°11'0 0.0
2017-Jun-15 20:00N 34°41' E 135°11'0 0.0
2017-Jun-15 19:24N 34°41' E 135°11'0 0.0
2017-Jun-15 19:00N 34°41' E 135°11'0 0.0
2017-Jun-15 18:30N 34°41' E 135°11'0 0.0
2017-Jun-15 18:00N 34°41' E 135°11'0 0.0
2017-Jun-15 17:24N 34°41' E 135°11'0 0.0
2017-Jun-15 16:54N 34°41' E 135°11'0 0.0
2017-Jun-15 16:30N 34°41' E 135°11'0 0.0
2017-Jun-15 15:54N 34°41' E 135°11'0 0.0
2017-Jun-15 15:30N 34°41' E 135°11'0 0.0
2017-Jun-15 15:00N 34°41' E 135°11'0 0.0
2017-Jun-15 14:00N 34°41' E 135°11'0 0.0
2017-Jun-15 13:30N 34°41' E 135°11'0 0.0
2017-Jun-15 12:54N 34°41' E 135°11'0 0.0
2017-Jun-15 12:30N 34°41' E 135°11'0 0.7
2017-Jun-15 12:00N 34°41' E 135°11'4 8.1
2017-Jun-15 11:29N 34°37' E 135°08'3 5.5
2017-Jun-15 11:00N 34°37' E 135°05'4 8.5
2017-Jun-15 10:30N 34°38' E 135°10'3 6.1
2017-Jun-15 10:00N 34°41' E 135°11'0 0.0
2017-Jun-15 09:22N 34°41' E 135°11'2 6.5
2017-Jun-15 09:00N 34°38' E 135°11'4 7.5
2017-Jun-15 08:30N 34°37' E 135°07'4 8.2
2017-Jun-15 08:00N 34°39' E 135°11'2 2.4
2017-Jun-15 07:23N 34°41' E 135°11'0 0.0
2017-Jun-15 06:58N 34°41' E 135°11'3 5.5
2017-Jun-15 06:30N 34°38' E 135°11'1 2.2
2017-Jun-15 06:00N 34°38' E 135°10'3 6.3
2017-Jun-15 05:30N 34°41' E 135°11'0 0.0
2017-Jun-15 04:58N 34°41' E 135°11'2 5.0
2017-Jun-15 04:30N 34°39' E 135°11'4 8.5
2017-Jun-15 04:00N 34°37' E 135°06'4 7.1
2017-Jun-15 03:30N 34°38' E 135°10'3 5.1
2017-Jun-15 02:56N 34°41' E 135°11'0 0.0
2017-Jun-15 02:14N 34°41' E 135°11'0 0.0
2017-Jun-15 01:56N 34°41' E 135°11'0 0.0
2017-Jun-15 01:26N 34°41' E 135°11'0 0.0
2017-Jun-15 00:56N 34°41' E 135°11'0 0.0
2017-Jun-15 00:26N 34°41' E 135°11'0 0.0
2017-Jun-14 23:56N 34°41' E 135°11'0 0.0
2017-Jun-14 23:26N 34°41' E 135°11'0 0.0
2017-Jun-14 22:56N 34°41' E 135°11'0 0.0
2017-Jun-14 22:26N 34°41' E 135°11'0 0.0
2017-Jun-14 21:56N 34°41' E 135°11'0 0.0
2017-Jun-14 21:20N 34°41' E 135°11'0 0.0
2017-Jun-14 20:50N 34°41' E 135°11'0 0.0
2017-Jun-14 20:26N 34°41' E 135°11'  
Track history (hours):
 
Tides and Currents Weather Stations Pressure Air Temp Water Temp Dewpoint Dewpoint Depression Visibility Wind Speed Wind Dir Waves Ship Positions

Concerto

Last reported at 2017-Jun-24 20:25 UTC. Time now 2017-Jun-24 20:51 UTC.
Position N 34°41' E 135°11'.

Length 74 m; draft 3 m.

Type: Passenger vessel. MMSI: 431000448.

Date/timePositionNaut miles runAvg speedWind from/ knotsBaromVisibWave heightAir tempDewpointWater temp
2017-Jun-24 20:25N 34°41' E 135°11'0 0.0
2017-Jun-24 19:55N 34°41' E 135°11'0 0.0
2017-Jun-24 19:19N 34°41' E 135°11'0 0.0
2017-Jun-24 18:56N 34°41' E 135°11'0 0.0
2017-Jun-24 18:19N 34°41' E 135°11'0 0.0
2017-Jun-24 17:56N 34°41' E 135°11'0 0.0
2017-Jun-24 17:25N 34°41' E 135°11'0 0.0
2017-Jun-24 16:55N 34°41' E 135°11'0 0.0
2017-Jun-24 16:25N 34°41' E 135°11'0 0.0
2017-Jun-24 15:55N 34°41' E 135°11'0 0.0
2017-Jun-24 15:13N 34°41' E 135°11'0 0.0
2017-Jun-24 14:55N 34°41' E 135°11'0 0.0
2017-Jun-24 13:55N 34°41' E 135°11'0 0.0
2017-Jun-24 13:26N 34°41' E 135°11'0 0.0
2017-Jun-24 12:55N 34°41' E 135°11'0 0.0
2017-Jun-24 12:25N 34°41' E 135°11'0 0.0
2017-Jun-24 12:00N 34°41' E 135°11'3 6.6
2017-Jun-24 11:30N 34°38' E 135°10'4 7.4
2017-Jun-24 11:00N 34°37' E 135°05'4 8.3
2017-Jun-24 10:30N 34°38' E 135°10'3 5.7
2017-Jun-24 10:00N 34°41' E 135°11'0 0.0
2017-Jun-24 09:29N 34°41' E 135°11'3 5.4
2017-Jun-24 09:00N 34°38' E 135°11'3 6.3
2017-Jun-24 08:30N 34°37' E 135°08'4 7.9
2017-Jun-24 08:00N 34°40' E 135°11'1 2.6
2017-Jun-24 07:30N 34°41' E 135°11'0 0.0
2017-Jun-24 07:00N 34°41' E 135°11'2 4.1
2017-Jun-24 06:31N 34°39' E 135°11'0 0.4
2017-Jun-24 06:00N 34°39' E 135°11'2 4.5
2017-Jun-24 05:30N 34°41' E 135°11'0 0.0
2017-Jun-24 04:57N 34°41' E 135°11'2 5.2
2017-Jun-24 04:30N 34°38' E 135°11'4 8.7
2017-Jun-24 04:00N 34°37' E 135°06'4 7.2
2017-Jun-24 03:30N 34°38' E 135°10'3 5.2
2017-Jun-24 03:00N 34°41' E 135°11'0 0.0
2017-Jun-24 02:26N 34°41' E 135°11'0 0.0
2017-Jun-24 01:56N 34°41' E 135°11'0 0.0
2017-Jun-24 01:20N 34°41' E 135°11'0 0.0
2017-Jun-24 00:56N 34°41' E 135°11'0 0.0
2017-Jun-24 00:26N 34°41' E 135°11'0 0.0
2017-Jun-23 23:56N 34°41' E 135°11'0 0.0
2017-Jun-23 23:26N 34°41' E 135°11'0 0.0
2017-Jun-23 22:50N 34°41' E 135°11'0 0.0
2017-Jun-23 22:20N 34°41' E 135°11'0 0.0
2017-Jun-23 21:56N 34°41' E 135°11'0 0.0
2017-Jun-23 21:20N 34°41' E 135°11'0 0.0
2017-Jun-23 20:56N 34°41' E 135°11'0 0.0
2017-Jun-23 20:26N 34°41' E 135°11'0 0.0
2017-Jun-23 19:50N 34°41' E 135°11'0 0.0
2017-Jun-23 19:26N 34°41' E 135°11'0 0.0
2017-Jun-23 18:56N 34°41' E 135°11'0 0.0
2017-Jun-23 18:26N 34°41' E 135°11'0 0.0
2017-Jun-23 17:56N 34°41' E 135°11'0 0.0
2017-Jun-23 17:26N 34°41' E 135°11'0 0.0
2017-Jun-23 16:56N 34°41' E 135°11'0 0.0
2017-Jun-23 16:26N 34°41' E 135°11'0 0.0
2017-Jun-23 15:56N 34°41' E 135°11'0 0.0
2017-Jun-23 15:26N 34°41' E 135°11'0 0.0
2017-Jun-23 14:56N 34°41' E 135°11'0 0.0
2017-Jun-23 13:56N 34°41' E 135°11'0 0.0
2017-Jun-23 13:02N 34°41' E 135°11'0 0.0
2017-Jun-23 12:56N 34°41' E 135°11'0 0.0
2017-Jun-23 12:20N 34°41' E 135°11'0 0.2
2017-Jun-23 12:00N 34°41' E 135°11'3 6.4
2017-Jun-23 11:30N 34°38' E 135°10'4 8.4
2017-Jun-23 11:00N 34°37' E 135°05'4 7.6
2017-Jun-23 10:30N 34°38' E 135°09'3 6.1
2017-Jun-23 10:00N 34°41' E 135°11'0 0.0
2017-Jun-23 09:24N 34°41' E 135°11'3 6.6
2017-Jun-23 09:00N 34°38' E 135°11'4 7.3
2017-Jun-23 08:30N 34°37' E 135°07'4 8.6
2017-Jun-23 08:00N 34°39' E 135°11'2 2.9
2017-Jun-23 07:29N 34°41' E 135°11'0 0.0
2017-Jun-23 06:52N 34°41' E 135°11'3 7.1
2017-Jun-23 06:30N 34°38' E 135°11'1 2.6
2017-Jun-23 06:00N 34°38' E 135°09'3 6.0
2017-Jun-23 05:30N 34°41' E 135°11'0 0.0
2017-Jun-23 04:55N 34°41' E 135°11'2 4.7
2017-Jun-23 04:30N 34°39' E 135°11'4 7.3
2017-Jun-23 04:00N 34°37' E 135°08'2 4.4
2017-Jun-23 03:30N 34°38' E 135°10'3 6.0
2017-Jun-23 03:00N 34°41' E 135°11'0 0.0
2017-Jun-23 02:15N 34°41' E 135°11'0 0.0
2017-Jun-23 01:51N 34°41' E 135°11'0 0.0
2017-Jun-23 01:27N 34°41' E 135°11'0 0.0
2017-Jun-23 00:51N 34°41' E 135°11'0 0.0
2017-Jun-23 00:27N 34°41' E 135°11'0 0.0
2017-Jun-22 23:57N 34°41' E 135°11'0 0.0
2017-Jun-22 23:27N 34°41' E 135°11'0 0.0
2017-Jun-22 22:57N 34°41' E 135°11'0 0.0
2017-Jun-22 22:27N 34°41' E 135°11'0 0.0
2017-Jun-22 21:45N 34°41' E 135°11'0 0.0
2017-Jun-22 21:27N 34°41' E 135°11'0 0.0
2017-Jun-22 20:57N 34°41' E 135°11'0 0.0
2017-Jun-22 20:27N 34°41' E 135°11'0 0.0
2017-Jun-22 19:57N 34°41' E 135°11'0 0.0
2017-Jun-22 19:21N 34°41' E 135°11'0 0.0
2017-Jun-22 18:57N 34°41' E 135°11'0 0.0
2017-Jun-22 18:09N 34°41' E 135°11'0 0.0
2017-Jun-22 17:51N 34°41' E 135°11'0 0.0
2017-Jun-22 17:21N 34°41' E 135°11'0 0.0
2017-Jun-22 16:57N 34°41' E 135°11'0 0.0
2017-Jun-22 16:27N 34°41' E 135°11'0 0.0
2017-Jun-22 15:57N 34°41' E 135°11'0 0.0
2017-Jun-22 15:27N 34°41' E 135°11'0 0.0
2017-Jun-22 14:57N 34°41' E 135°11'0 0.0
2017-Jun-22 14:27N 34°41' E 135°11'0 0.0
2017-Jun-22 13:27N 34°41' E 135°11'0 0.0
2017-Jun-22 12:57N 34°41' E 135°11'0 0.0
2017-Jun-22 12:21N 34°41' E 135°11'0 0.4
2017-Jun-22 12:00N 34°41' E 135°11'3 7.0
2017-Jun-22 11:30N 34°37' E 135°10'4 8.3
2017-Jun-22 11:00N 34°37' E 135°05'4 8.8
2017-Jun-22 10:30N 34°38' E 135°10'3 5.4
2017-Jun-22 10:00N 34°41' E 135°11'0 0.0
2017-Jun-22 09:24N 34°41' E 135°11'3 6.3
2017-Jun-22 09:00N 34°38' E 135°11'3 6.1
2017-Jun-22 08:30N 34°37' E 135°08'4 8.4
2017-Jun-22 08:00N 34°40' E 135°11'1 1.6
2017-Jun-22 07:23N 34°41' E 135°11'0 0.0
2017-Jun-22 06:59N 34°41' E 135°11'3 5.8
2017-Jun-22 06:30N 34°38' E 135°10'0 0.9
2017-Jun-22 06:00N 34°38' E 135°10'3 5.0
2017-Jun-22 05:30N 34°41' E 135°11'0 0.0
2017-Jun-22 05:00N 34°41' E 135°11'2 4.7
2017-Jun-22 04:30N 34°39' E 135°11'5 9.1
2017-Jun-22 04:00N 34°37' E 135°06'4 7.9
2017-Jun-22 03:30N 34°38' E 135°10'3 5.4
2017-Jun-22 03:00N 34°41' E 135°11'0 0.0
2017-Jun-22 02:25N 34°41' E 135°11'0 0.0
2017-Jun-22 01:55N 34°41' E 135°11'0 0.0
2017-Jun-22 01:13N 34°41' E 135°11'0 0.0
2017-Jun-22 00:55N 34°41' E 135°11'0 0.0
2017-Jun-22 00:25N 34°41' E 135°11'0 0.0
2017-Jun-21 23:55N 34°41' E 135°11'0 0.0
2017-Jun-21 23:25N 34°41' E 135°11'0 0.0
2017-Jun-21 22:55N 34°41' E 135°11'0 0.0
2017-Jun-21 22:25N 34°41' E 135°11'0 0.0
2017-Jun-21 21:55N 34°41' E 135°11'0 0.0
2017-Jun-21 21:25N 34°41' E 135°11'0 0.0
2017-Jun-21 20:55N 34°41' E 135°11'0 0.0
2017-Jun-21 20:19N 34°41' E 135°11'0 0.0
2017-Jun-21 19:55N 34°41' E 135°11'0 0.0
2017-Jun-21 19:19N 34°41' E 135°11'0 0.0
2017-Jun-21 18:49N 34°41' E 135°11'0 0.0
2017-Jun-21 18:25N 34°41' E 135°11'0 0.0
2017-Jun-21 17:55N 34°41' E 135°11'0 0.0
2017-Jun-21 17:25N 34°41' E 135°11'0 0.0
2017-Jun-21 16:55N 34°41' E 135°11'0 0.0
2017-Jun-21 16:25N 34°41' E 135°11'0 0.0
2017-Jun-21 15:49N 34°41' E 135°11'0 0.0
2017-Jun-21 15:25N 34°41' E 135°11'0 0.0
2017-Jun-21 14:55N 34°41' E 135°11'0 0.0
2017-Jun-21 14:13N 34°41' E 135°11'0 0.0
2017-Jun-21 13:25N 34°41' E 135°11'0 0.0
2017-Jun-21 12:55N 34°41' E 135°11'0 0.0
2017-Jun-21 12:19N 34°41' E 135°11'0 1.0
2017-Jun-21 12:00N 34°41' E 135°11'2 4.9
2017-Jun-21 11:30N 34°38' E 135°11'3 6.8
2017-Jun-21 11:00N 34°37' E 135°07'3 6.3
2017-Jun-21 10:30N 34°38' E 135°11'3 4.5
2017-Jun-21 09:55N 34°41' E 135°11'0 0.0
2017-Jun-21 09:26N 34°41' E 135°11'1 3.4
2017-Jun-21 09:00N 34°39' E 135°11'3 5.2
2017-Jun-21 08:31N 34°38' E 135°09'3 5.6
2017-Jun-21 08:00N 34°40' E 135°11'1 2.0
2017-Jun-21 07:30N 34°41' E 135°11'0 0.0
2017-Jun-21 07:00N 34°41' E 135°11'1 2.9
2017-Jun-21 06:30N 34°39' E 135°12'1 1.1
2017-Jun-21 06:00N 34°40' E 135°12'1 1.9
2017-Jun-21 05:30N 34°41' E 135°11'0 0.0
2017-Jun-21 04:58N 34°41' E 135°11'2 5.1
2017-Jun-21 04:30N 34°38' E 135°11'3 7.0
2017-Jun-21 04:00N 34°37' E 135°07'3 6.6
2017-Jun-21 03:30N 34°38' E 135°11'3 5.1
2017-Jun-21 03:00N 34°41' E 135°11'0 0.0
2017-Jun-21 02:22N 34°41' E 135°11'0 0.0
2017-Jun-21 01:58N 34°41' E 135°11'0 0.0
2017-Jun-21 01:28N 34°41' E 135°11'0 0.0
2017-Jun-21 00:52N 34°41' E 135°11'0 0.0
2017-Jun-21 00:28N 34°41' E 135°11'0 0.0
2017-Jun-20 23:58N 34°41' E 135°11'0 0.0
2017-Jun-20 23:28N 34°41' E 135°11'0 0.0
2017-Jun-20 22:58N 34°41' E 135°11'0 0.0
2017-Jun-20 22:28N 34°41' E 135°11'0 0.0
2017-Jun-20 21:58N 34°41' E 135°11'0 0.0
2017-Jun-20 21:28N 34°41' E 135°11'0 0.0
2017-Jun-20 20:58N 34°41' E 135°11'0 0.0
2017-Jun-20 20:28N 34°41' E 135°11'0 0.0
2017-Jun-20 19:58N 34°41' E 135°11'0 0.0
2017-Jun-20 19:22N 34°41' E 135°11'0 0.0
2017-Jun-20 18:58N 34°41' E 135°11'0 0.0
2017-Jun-20 18:28N 34°41' E 135°11'0 0.0
2017-Jun-20 17:46N 34°41' E 135°11'0 0.0
2017-Jun-20 17:28N 34°41' E 135°11'0 0.0
2017-Jun-20 16:58N 34°41' E 135°11'0 0.0
2017-Jun-20 16:28N 34°41' E 135°11'0 0.0
2017-Jun-20 15:58N 34°41' E 135°11'0 0.0
2017-Jun-20 15:28N 34°41' E 135°11'0 0.0
2017-Jun-20 14:58N 34°41' E 135°11'0 0.0
2017-Jun-20 14:28N 34°41' E 135°11'0 0.0
2017-Jun-20 13:28N 34°41' E 135°11'0 0.0
2017-Jun-20 12:52N 34°41' E 135°11'0 0.0
2017-Jun-20 12:28N 34°41' E 135°11'0 0.2
2017-Jun-20 12:00N 34°41' E 135°11'3 6.1
2017-Jun-20 11:30N 34°38' E 135°10'3 5.7
2017-Jun-20 11:00N 34°37' E 135°07'3 5.9
2017-Jun-20 10:30N 34°38' E 135°10'3 5.7
2017-Jun-20 10:00N 34°41' E 135°11'0 0.0
2017-Jun-20 09:29N 34°41' E 135°11'1 1.4
2017-Jun-20 09:00N 34°40' E 135°11'2 3.6
2017-Jun-20 08:30N 34°38' E 135°11'1 2.5
2017-Jun-20 08:00N 34°40' E 135°11'1 2.3
2017-Jun-20 07:30N 34°41' E 135°11'0 0.0
2017-Jun-20 06:57N 34°41' E 135°11'2 4.2
2017-Jun-20 06:30N 34°39' E 135°11'1 1.1
2017-Jun-20 06:00N 34°39' E 135°11'2 4.6
2017-Jun-20 05:30N 34°41' E 135°11'0 0.0
2017-Jun-20 04:55N 34°41' E 135°11'2 4.6
2017-Jun-20 04:30N 34°39' E 135°11'4 7.5
2017-Jun-20 04:00N 34°37' E 135°07'3 5.4
2017-Jun-20 03:30N 34°38' E 135°10'3 5.1
2017-Jun-20 03:00N 34°41' E 135°11'0 0.0
2017-Jun-20 02:30N 34°41' E 135°11'0 0.0
2017-Jun-20 02:00N 34°41' E 135°11'0 0.0
2017-Jun-20 01:30N 34°41' E 135°11'0 0.0
2017-Jun-20 01:00N 34°41' E 135°11'0 0.0
2017-Jun-20 00:30N 34°41' E 135°11'0 0.0
2017-Jun-20 00:00N 34°41' E 135°11'0 0.0
2017-Jun-19 23:30N 34°41' E 135°11'0 0.0
2017-Jun-19 23:00N 34°41' E 135°11'0 0.0
2017-Jun-19 22:30N 34°41' E 135°11'0 0.0
2017-Jun-19 22:00N 34°41' E 135°11'0 0.0
2017-Jun-19 21:30N 34°41' E 135°11'0 0.0
2017-Jun-19 21:00N 34°41' E 135°11'0 0.0
2017-Jun-19 20:30N 34°41' E 135°11'0 0.0
2017-Jun-19 20:00N 34°41' E 135°11'0 0.0
2017-Jun-19 19:30N 34°41' E 135°11'0 0.0
2017-Jun-19 19:00N 34°41' E 135°11'0 0.0
2017-Jun-19 18:30N 34°41' E 135°11'0 0.0
2017-Jun-19 18:00N 34°41' E 135°11'0 0.0
2017-Jun-19 17:30N 34°41' E 135°11'0 0.0
2017-Jun-19 17:00N 34°41' E 135°11'0 0.0
2017-Jun-19 16:30N 34°41' E 135°11'0 0.0
2017-Jun-19 16:00N 34°41' E 135°11'0 0.0
2017-Jun-19 15:30N 34°41' E 135°11'0 0.0
2017-Jun-19 15:00N 34°41' E 135°11'0 0.0
2017-Jun-19 14:30N 34°41' E 135°11'0 0.0
2017-Jun-19 13:30N 34°41' E 135°11'0 0.0
2017-Jun-19 13:00N 34°41' E 135°11'0 0.0
2017-Jun-19 12:30N 34°41' E 135°11'0 1.0
2017-Jun-19 12:00N 34°40' E 135°11'4 8.6
2017-Jun-19 11:30N 34°37' E 135°08'2 4.2
2017-Jun-19 11:00N 34°37' E 135°06'4 8.2
2017-Jun-19 10:30N 34°38' E 135°10'3 5.3
2017-Jun-19 10:00N 34°41' E 135°11'0 0.0
2017-Jun-19 09:29N 34°41' E 135°11'3 5.5
2017-Jun-19 09:00N 34°38' E 135°11'3 6.6
2017-Jun-19 08:30N 34°37' E 135°07'4 8.1
2017-Jun-19 08:00N 34°39' E 135°11'1 2.6
2017-Jun-19 07:30N 34°41' E 135°11'0 0.0
2017-Jun-19 07:00N 34°41' E 135°11'3 5.4
2017-Jun-19 06:30N 34°38' E 135°11'1 1.0
2017-Jun-19 06:00N 34°38' E 135°10'3 5.3
2017-Jun-19 05:30N 34°41' E 135°11'0 0.0
2017-Jun-19 04:51N 34°41' E 135°11'2 6.3
2017-Jun-19 04:30N 34°39' E 135°11'5 9.1
2017-Jun-19 04:00N 34°37' E 135°06'3 6.2
2017-Jun-19 03:30N 34°38' E 135°10'3 6.1
2017-Jun-19 03:00N 34°41' E 135°11'0 0.0
2017-Jun-19 02:24N 34°41' E 135°11'0 0.0
2017-Jun-19 01:48N 34°41' E 135°11'0 0.0
2017-Jun-19 01:30N 34°41' E 135°11'0 0.0
2017-Jun-19 01:00N 34°41' E 135°11'0 0.0
2017-Jun-19 00:30N 34°41' E 135°11'0 0.0
2017-Jun-18 23:54N 34°41' E 135°11'0 0.0
2017-Jun-18 23:00N 34°41' E 135°11'0 0.0
2017-Jun-18 22:30N 34°41' E 135°11'0 0.0
2017-Jun-18 21:54N 34°41' E 135°11'0 0.0
2017-Jun-18 21:30N 34°41' E 135°11'0 0.0
2017-Jun-18 21:00N 34°41' E 135°11'0 0.0
2017-Jun-18 20:24N 34°41' E 135°11'0 0.0
2017-Jun-18 20:00N 34°41' E 135°11'0 0.0
2017-Jun-18 19:18N 34°41' E 135°11'0 0.0
2017-Jun-18 18:54N 34°41' E 135°11'0 0.0
2017-Jun-18 18:24N 34°41' E 135°11'0 0.0
2017-Jun-18 18:00N 34°41' E 135°11'0 0.0
2017-Jun-18 17:30N 34°41' E 135°11'0 0.0
2017-Jun-18 16:54N 34°41' E 135°11'0 0.0
2017-Jun-18 16:30N 34°41' E 135°11'0 0.0
2017-Jun-18 16:00N 34°41' E 135°11'0 0.0
2017-Jun-18 15:30N 34°41' E 135°11'0 0.0
2017-Jun-18 14:48N 34°41' E 135°11'0 0.0
2017-Jun-18 13:54N 34°41' E 135°11'0 0.0
2017-Jun-18 13:30N 34°41' E 135°11'0 0.0
2017-Jun-18 13:00N 34°41' E 135°11'0 0.0
2017-Jun-18 12:30N 34°41' E 135°11'0 0.6
2017-Jun-18 12:00N 34°41' E 135°11'3 6.7
2017-Jun-18 11:30N 34°38' E 135°09'3 5.9
2017-Jun-18 11:00N 34°37' E 135°06'4 7.9
2017-Jun-18 10:30N 34°38' E 135°10'3 5.3
2017-Jun-18 10:00N 34°41' E 135°11'0 0.0
2017-Jun-18 09:25N 34°41' E 135°11'2 4.6
2017-Jun-18 09:00N 34°39' E 135°11'3 6.6
2017-Jun-18 08:30N 34°37' E 135°08'4 7.5
2017-Jun-18 08:00N 34°40' E 135°11'1 2.2
2017-Jun-18 07:30N 34°41' E 135°11'0 0.0
2017-Jun-18 06:57N 34°41' E 135°11'2 5.2
2017-Jun-18 06:30N 34°38' E 135°11'1 1.7
2017-Jun-18 06:00N 34°38' E 135°10'3 5.1
2017-Jun-18 05:27N 34°41' E 135°11'0 0.0
2017-Jun-18 04:51N 34°41' E 135°11'2 6.5
2017-Jun-18 04:30N 34°39' E 135°11'4 8.7
2017-Jun-18 04:00N 34°37' E 135°06'3 6.5
2017-Jun-18 03:30N 34°38' E 135°10'3 5.7
2017-Jun-18 03:00N 34°41' E 135°11'0 0.0
2017-Jun-18 02:27N 34°41' E 135°11'0 0.0
2017-Jun-18 01:57N 34°41' E 135°11'0 0.0
2017-Jun-18 01:27N 34°41' E 135°11'0 0.0
2017-Jun-18 00:57N 34°41' E 135°11'0 0.0
2017-Jun-18 00:27N 34°41' E 135°11'0 0.0
2017-Jun-17 23:57N 34°41' E 135°11'0 0.0
2017-Jun-17 23:27N 34°41' E 135°11'0 0.0
2017-Jun-17 22:57N 34°41' E 135°11'0 0.0
2017-Jun-17 22:27N 34°41' E 135°11'0 0.0
2017-Jun-17 21:51N 34°41' E 135°11'0 0.0
2017-Jun-17 21:27N 34°41' E 135°11'0 0.0
2017-Jun-17 20:57N 34°41' E 135°11'0 0.0
2017-Jun-17 20:27N 34°41' E 135°11'0 0.0
2017-Jun-17 19:57N 34°41' E 135°11'0 0.0
2017-Jun-17 19:27N 34°41' E 135°11'0 0.0
2017-Jun-17 18:57N 34°41' E 135°11'0 0.0
2017-Jun-17 18:21N 34°41' E 135°11'0 0.0
2017-Jun-17 17:45N 34°41' E 135°11'0 0.0
2017-Jun-17 17:27N 34°41' E 135°11'0 0.0
2017-Jun-17 16:57N 34°41' E 135°11'0 0.0
2017-Jun-17 16:27N 34°41' E 135°11'0 0.0
2017-Jun-17 15:51N 34°41' E 135°11'0 0.0
2017-Jun-17 15:27N 34°41' E 135°11'0 0.0
2017-Jun-17 14:57N 34°41' E 135°11'0 0.0
2017-Jun-17 14:27N 34°41' E 135°11'0 0.0
2017-Jun-17 13:27N 34°41' E 135°11'0 0.0
2017-Jun-17 12:57N 34°41' E 135°11'0 0.0
2017-Jun-17 12:21N 34°41' E 135°11'0 0.2
2017-Jun-17 12:00N 34°41' E 135°11'4 7.4
2017-Jun-17 11:31N 34°37' E 135°09'4 7.9
2017-Jun-17 11:00N 34°37' E 135°05'4 8.4
2017-Jun-17 10:31N 34°38' E 135°09'3 6.3
2017-Jun-17 10:00N 34°41' E 135°11'0 0.0
2017-Jun-17 09:25N 34°41' E 135°11'2 5.1
2017-Jun-17 09:00N 34°39' E 135°11'3 6.1
2017-Jun-17 08:30N 34°38' E 135°08'4 7.4
2017-Jun-17 08:00N 34°40' E 135°11'1 1.9
2017-Jun-17 07:30N 34°41' E 135°11'0 0.0
2017-Jun-17 06:58N 34°41' E 135°11'2 4.9
2017-Jun-17 06:31N 34°39' E 135°11'1 1.8
2017-Jun-17 06:01N 34°38' E 135°10'3 5.5
2017-Jun-17 05:31N 34°41' E 135°11'0 0.0
2017-Jun-17 04:56N 34°41' E 135°11'2 5.1
2017-Jun-17 04:30N 34°39' E 135°11'4 8.7
2017-Jun-17 04:00N 34°37' E 135°06'3 5.9
2017-Jun-17 03:30N 34°38' E 135°10'3 6.2
2017-Jun-17 03:00N 34°41' E 135°11'0 0.0
2017-Jun-17 02:14N 34°41' E 135°11'0 0.0
2017-Jun-17 01:56N 34°41' E 135°11'0 0.0
2017-Jun-17 01:26N 34°41' E 135°11'0 0.0
2017-Jun-17 00:44N 34°41' E 135°11'0 0.0
2017-Jun-17 00:26N 34°41' E 135°11'0 0.0
2017-Jun-16 23:56N 34°41' E 135°11'0 0.0
2017-Jun-16 23:26N 34°41' E 135°11'0 0.0
2017-Jun-16 22:50N 34°41' E 135°11'0 0.0
2017-Jun-16 22:26N 34°41' E 135°11'0 0.0
2017-Jun-16 21:56N 34°41' E 135°11'0 0.0
2017-Jun-16 21:26N 34°41' E 135°11'0 0.0
2017-Jun-16 20:56N 34°41' E 135°11'0 0.0
2017-Jun-16 20:26N 34°41' E 135°11'0 0.0
2017-Jun-16 19:56N 34°41' E 135°11'0 0.0
2017-Jun-16 19:26N 34°41' E 135°11'0 0.0
2017-Jun-16 18:50N 34°41' E 135°11'0 0.0
2017-Jun-16 18:20N 34°41' E 135°11'0 0.0
2017-Jun-16 17:56N 34°41' E 135°11'0 0.0
2017-Jun-16 17:26N 34°41' E 135°11'0 0.0
2017-Jun-16 16:56N 34°41' E 135°11'0 0.0
2017-Jun-16 16:26N 34°41' E 135°11'0 0.0
2017-Jun-16 15:56N 34°41' E 135°11'0 0.0
2017-Jun-16 15:26N 34°41' E 135°11'0 0.0
2017-Jun-16 14:56N 34°41' E 135°11'0 0.0
2017-Jun-16 14:20N 34°41' E 135°11'0 0.0
2017-Jun-16 13:26N 34°41' E 135°11'0 0.0
2017-Jun-16 12:50N 34°41' E 135°11'0 0.0
2017-Jun-16 12:20N 34°41' E 135°11'1 1.7
2017-Jun-16 12:00N 34°40' E 135°11'4 7.5
2017-Jun-16 11:31N 34°37' E 135°09'4 7.2
2017-Jun-16 11:01N 34°37' E 135°05'4 8.2
2017-Jun-16 10:30N 34°38' E 135°10'3 6.4
2017-Jun-16 10:00N 34°41' E 135°11'0 0.0
2017-Jun-16 09:28N 34°41' E 135°11'2 4.8
2017-Jun-16 09:00N 34°39' E 135°11'4 7.1
2017-Jun-16 08:30N 34°37' E 135°07'4 8.2
2017-Jun-16 08:00N 34°40' E 135°11'1 2.6
2017-Jun-16 07:30N 34°41' E 135°11'0 0.0
2017-Jun-16 07:00N 34°41' E 135°11'2 4.5
2017-Jun-16 06:31N 34°39' E 135°11'1 2.7
2017-Jun-16 06:01N 34°38' E 135°10'3 6.3
2017-Jun-16 05:31N 34°41' E 135°11'0 0.0
2017-Jun-16 04:55N 34°41' E 135°11'2 4.8
2017-Jun-16 04:30N 34°39' E 135°11'4 7.6
2017-Jun-16 04:00N 34°37' E 135°07'2 4.7
2017-Jun-16 03:31N 34°38' E 135°10'3 6.2
2017-Jun-16 03:00N 34°41' E 135°11'0 0.0
2017-Jun-16 02:30N 34°41' E 135°11'0 0.0
2017-Jun-16 02:00N 34°41' E 135°11'0 0.0
2017-Jun-16 01:30N 34°41' E 135°11'0 0.0
2017-Jun-16 01:00N 34°41' E 135°11'0 0.0
2017-Jun-16 00:24N 34°41' E 135°11'0 0.0
2017-Jun-16 00:00N 34°41' E 135°11'0 0.0
2017-Jun-15 23:12N 34°41' E 135°11'0 0.0
2017-Jun-15 23:00N 34°41' E 135°11'0 0.0
2017-Jun-15 22:30N 34°41' E 135°11'0 0.0
2017-Jun-15 22:00N 34°41' E 135°11'0 0.0
2017-Jun-15 21:18N 34°41' E 135°11'0 0.0
2017-Jun-15 21:00N 34°41' E 135°11'0 0.0
2017-Jun-15 20:30N 34°41' E 135°11'0 0.0
2017-Jun-15 20:00N 34°41' E 135°11'0 0.0
2017-Jun-15 19:24N 34°41' E 135°11'0 0.0
2017-Jun-15 19:00N 34°41' E 135°11'0 0.0
2017-Jun-15 18:30N 34°41' E 135°11'0 0.0
2017-Jun-15 18:00N 34°41' E 135°11'0 0.0
2017-Jun-15 17:24N 34°41' E 135°11'0 0.0
2017-Jun-15 16:54N 34°41' E 135°11'0 0.0
2017-Jun-15 16:30N 34°41' E 135°11'0 0.0
2017-Jun-15 15:54N 34°41' E 135°11'0 0.0
2017-Jun-15 15:30N 34°41' E 135°11'0 0.0
2017-Jun-15 15:00N 34°41' E 135°11'0 0.0
2017-Jun-15 14:00N 34°41' E 135°11'0 0.0
2017-Jun-15 13:30N 34°41' E 135°11'0 0.0
2017-Jun-15 12:54N 34°41' E 135°11'0 0.0
2017-Jun-15 12:30N 34°41' E 135°11'0 0.7
2017-Jun-15 12:00N 34°41' E 135°11'4 8.1
2017-Jun-15 11:29N 34°37' E 135°08'3 5.5
2017-Jun-15 11:00N 34°37' E 135°05'4 8.5
2017-Jun-15 10:30N 34°38' E 135°10'3 6.1
2017-Jun-15 10:00N 34°41' E 135°11'0 0.0
2017-Jun-15 09:22N 34°41' E 135°11'2 6.5
2017-Jun-15 09:00N 34°38' E 135°11'4 7.5
2017-Jun-15 08:30N 34°37' E 135°07'4 8.2
2017-Jun-15 08:00N 34°39' E 135°11'2 2.4
2017-Jun-15 07:23N 34°41' E 135°11'0 0.0
2017-Jun-15 06:58N 34°41' E 135°11'3 5.5
2017-Jun-15 06:30N 34°38' E 135°11'1 2.2
2017-Jun-15 06:00N 34°38' E 135°10'3 6.3
2017-Jun-15 05:30N 34°41' E 135°11'0 0.0
2017-Jun-15 04:58N 34°41' E 135°11'2 5.0
2017-Jun-15 04:30N 34°39' E 135°11'4 8.5
2017-Jun-15 04:00N 34°37' E 135°06'4 7.1
2017-Jun-15 03:30N 34°38' E 135°10'3 5.1
2017-Jun-15 02:56N 34°41' E 135°11'0 0.0
2017-Jun-15 02:14N 34°41' E 135°11'0 0.0
2017-Jun-15 01:56N 34°41' E 135°11'0 0.0
2017-Jun-15 01:26N 34°41' E 135°11'0 0.0
2017-Jun-15 00:56N 34°41' E 135°11'0 0.0
2017-Jun-15 00:26N 34°41' E 135°11'0 0.0
2017-Jun-14 23:56N 34°41' E 135°11'0 0.0
2017-Jun-14 23:26N 34°41' E 135°11'0 0.0
2017-Jun-14 22:56N 34°41' E 135°11'0 0.0
2017-Jun-14 22:26N 34°41' E 135°11'0 0.0
2017-Jun-14 21:56N 34°41' E 135°11'0 0.0
2017-Jun-14 21:20N 34°41' E 135°11'0 0.0
2017-Jun-14 20:50N 34°41' E 135°11'0 0.0
2017-Jun-14 20:26N 34°41' E 135°11'  

Dump ship's entire track history